createdAt,value
2019-05-21T00:00:25.847Z,17.60
2019-05-21T00:05:29.763Z,17.60
2019-05-21T00:10:33.634Z,17.50
2019-05-21T00:15:37.492Z,17.50
2019-05-21T00:20:41.390Z,17.30
2019-05-21T00:25:45.267Z,17.30
2019-05-21T00:31:25.835Z,17.20
2019-05-21T00:37:07.384Z,17.20
2019-05-21T00:42:10.392Z,17.10
2019-05-21T00:47:14.808Z,17.10
2019-05-21T00:52:18.728Z,17.10
2019-05-21T00:57:22.650Z,17.10
2019-05-21T01:02:26.559Z,16.90
2019-05-21T01:07:30.490Z,16.90
2019-05-21T01:12:34.393Z,16.90
2019-05-21T01:17:38.406Z,16.80
2019-05-21T01:22:42.315Z,16.90
2019-05-21T01:27:46.228Z,16.90
2019-05-21T01:32:50.146Z,17.00
2019-05-21T01:37:54.060Z,16.90
2019-05-21T01:42:57.985Z,16.80
2019-05-21T01:48:01.835Z,16.70
2019-05-21T01:53:05.762Z,16.70
2019-05-21T01:58:09.674Z,16.60
2019-05-21T02:03:13.581Z,16.60
2019-05-21T02:08:17.494Z,16.60
2019-05-21T02:13:21.406Z,16.50
2019-05-21T02:18:25.272Z,16.50
2019-05-21T02:23:29.085Z,16.50
2019-05-21T02:28:32.976Z,16.50
2019-05-21T02:33:36.842Z,16.40
2019-05-21T02:38:40.723Z,16.40
2019-05-21T02:43:44.597Z,16.40
2019-05-21T02:48:48.486Z,16.30
2019-05-21T02:53:52.358Z,16.30
2019-05-21T02:58:56.226Z,16.20
2019-05-21T03:04:00.102Z,16.10
2019-05-21T03:09:05.085Z,16.00
2019-05-21T03:14:08.963Z,16.10
2019-05-21T03:19:16.577Z,16.10
2019-05-21T03:24:18.357Z,16.00
2019-05-21T03:29:22.224Z,16.10
2019-05-21T03:34:26.097Z,16.10
2019-05-21T03:39:29.993Z,16.10
2019-05-21T03:44:33.981Z,16.00
2019-05-21T03:49:37.853Z,16.00
2019-05-21T03:54:41.731Z,16.00
2019-05-21T03:59:45.616Z,16.10
2019-05-21T04:04:49.488Z,16.00
2019-05-21T04:09:53.365Z,16.10
2019-05-21T04:14:58.863Z,16.10
2019-05-21T04:20:02.789Z,16.10
2019-05-21T04:25:07.332Z,16.10
2019-05-21T04:30:11.595Z,16.20
2019-05-21T04:35:15.572Z,16.20
2019-05-21T04:40:19.487Z,16.20
2019-05-21T04:45:23.472Z,16.30
2019-05-21T04:50:27.381Z,16.40
2019-05-21T04:55:31.297Z,16.40
2019-05-21T05:00:35.232Z,16.40
2019-05-21T05:05:39.157Z,16.50
2019-05-21T05:10:43.016Z,16.60
2019-05-21T05:15:47.921Z,16.70
2019-05-21T05:20:51.857Z,16.70
2019-05-21T05:25:55.782Z,16.80
2019-05-21T05:30:59.722Z,16.80
2019-05-21T05:36:03.673Z,16.90
2019-05-21T05:41:07.630Z,17.00
2019-05-21T05:46:11.479Z,17.10
2019-05-21T05:51:15.399Z,17.10
2019-05-21T05:56:19.382Z,17.20
2019-05-21T06:01:23.821Z,17.30
2019-05-21T06:06:27.739Z,17.50
2019-05-21T06:11:31.665Z,17.60
2019-05-21T06:16:35.644Z,17.80
2019-05-21T06:21:39.559Z,17.80
2019-05-21T06:26:43.467Z,17.90
2019-05-21T06:31:47.378Z,18.00
2019-05-21T06:36:51.309Z,18.10
2019-05-21T06:41:55.244Z,18.20
2019-05-21T06:46:59.158Z,18.30
2019-05-21T06:52:03.083Z,18.30
2019-05-21T06:57:06.993Z,18.50
2019-05-21T07:02:10.899Z,18.60
2019-05-21T07:07:14.980Z,18.70
2019-05-21T07:12:18.981Z,18.80
2019-05-21T07:17:22.957Z,18.90
2019-05-21T07:22:26.878Z,19.00
2019-05-21T07:27:30.794Z,19.10
2019-05-21T07:32:34.753Z,19.20
2019-05-21T07:37:38.621Z,19.30
2019-05-21T07:42:42.579Z,19.40
2019-05-21T07:47:46.499Z,19.50
2019-05-21T07:52:50.415Z,19.60
2019-05-21T07:57:54.342Z,19.70
2019-05-21T08:02:58.304Z,19.80
2019-05-21T08:08:02.934Z,19.90
2019-05-21T08:13:06.930Z,19.90
2019-05-21T08:18:12.431Z,20.10
2019-05-21T08:23:16.308Z,20.20
2019-05-21T08:28:20.185Z,20.50
2019-05-21T08:33:24.042Z,20.70
2019-05-21T08:38:27.953Z,21.00
2019-05-21T08:43:31.817Z,21.40
2019-05-21T08:48:35.690Z,21.90
2019-05-21T08:53:39.571Z,22.40
2019-05-21T08:58:43.515Z,22.80
2019-05-21T09:03:47.645Z,23.20
2019-05-21T09:08:51.490Z,23.40
2019-05-21T09:13:55.631Z,23.40
2019-05-21T09:19:01.064Z,23.70
2019-05-21T09:24:04.966Z,24.00
2019-05-21T09:29:08.844Z,24.50
2019-05-21T09:34:12.713Z,24.90
2019-05-21T09:39:16.773Z,25.10
2019-05-21T09:44:20.700Z,25.40
2019-05-21T09:49:24.634Z,25.40
2019-05-21T09:54:28.553Z,25.40
2019-05-21T09:59:35.102Z,25.30
2019-05-21T10:04:41.048Z,25.00
2019-05-21T10:09:46.592Z,24.70
2019-05-21T10:14:50.513Z,24.60
2019-05-21T10:19:54.437Z,24.60
2019-05-21T10:25:01.311Z,24.60
2019-05-21T10:30:07.429Z,24.90
2019-05-21T10:35:11.483Z,25.10
2019-05-21T10:40:15.539Z,25.20
2019-05-21T10:45:19.709Z,25.40
2019-05-21T10:50:23.636Z,25.70
2019-05-21T10:55:27.502Z,26.20
2019-05-21T11:00:31.892Z,26.60
2019-05-21T11:05:41.355Z,27.10
2019-05-21T11:10:45.478Z,27.30
2019-05-21T11:15:50.023Z,26.90
2019-05-21T11:20:54.151Z,26.30
2019-05-21T11:25:58.159Z,25.80
2019-05-21T11:31:02.111Z,25.30
2019-05-21T11:36:06.194Z,25.00
2019-05-21T11:41:10.353Z,24.70
2019-05-21T11:46:14.559Z,24.50
2019-05-21T11:51:18.941Z,24.40
2019-05-21T11:56:23.382Z,24.30
2019-05-21T12:01:28.959Z,24.10
2019-05-21T12:06:33.081Z,24.00
2019-05-21T12:11:37.426Z,23.90
2019-05-21T12:16:41.760Z,23.70
2019-05-21T12:21:47.544Z,23.60
2019-05-21T12:26:51.755Z,23.60
2019-05-21T12:31:56.095Z,23.50
2019-05-21T12:37:00.738Z,23.50
2019-05-21T12:42:05.538Z,23.40
2019-05-21T12:47:10.115Z,23.40
2019-05-21T12:52:14.255Z,23.40
2019-05-21T12:57:19.916Z,23.30
2019-05-21T13:02:24.364Z,23.30
2019-05-21T13:07:29.602Z,23.30
2019-05-21T13:12:33.757Z,23.20
2019-05-21T13:17:37.989Z,23.20
2019-05-21T13:22:42.018Z,23.10
2019-05-21T13:27:46.263Z,23.20
2019-05-21T13:32:50.413Z,23.30
2019-05-21T13:37:55.339Z,23.60
2019-05-21T13:43:00.834Z,23.70
2019-05-21T13:48:05.153Z,23.80
2019-05-21T13:53:09.202Z,24.10
2019-05-21T13:58:13.723Z,24.40
2019-05-21T14:03:17.717Z,24.60
2019-05-21T14:08:22.110Z,24.70
2019-05-21T14:13:28.357Z,24.80
2019-05-21T14:18:32.795Z,24.80
2019-05-21T14:23:37.068Z,24.80
2019-05-21T14:28:41.160Z,24.70
2019-05-21T14:33:46.742Z,24.50
2019-05-21T14:38:50.750Z,24.30
2019-05-21T14:43:54.986Z,24.20
2019-05-21T14:48:59.364Z,24.00
2019-05-21T14:54:05.066Z,24.00
2019-05-21T14:59:11.269Z,23.90
2019-05-21T15:04:17.241Z,23.70
2019-05-21T15:09:21.851Z,23.60
2019-05-21T15:14:26.389Z,23.30
2019-05-21T15:19:30.872Z,23.10
2019-05-21T15:24:35.311Z,22.80
2019-05-21T15:29:39.723Z,22.60
2019-05-21T15:34:43.612Z,22.30
2019-05-21T15:39:48.128Z,22.10
2019-05-21T15:44:52.149Z,21.90
2019-05-21T15:49:56.398Z,21.70
2019-05-21T15:55:00.290Z,21.60
2019-05-21T16:00:09.452Z,21.50
2019-05-21T16:05:13.996Z,21.40
2019-05-21T16:10:20.591Z,21.30
2019-05-21T16:15:27.786Z,21.20
2019-05-21T16:20:33.219Z,21.20
2019-05-21T16:25:37.249Z,21.20
2019-05-21T16:30:41.716Z,21.20
2019-05-21T16:35:47.701Z,21.20
2019-05-21T16:40:52.732Z,21.10
2019-05-21T16:45:58.532Z,21.00
2019-05-21T16:51:03.798Z,20.90
2019-05-21T16:56:08.011Z,20.90
2019-05-21T17:01:13.682Z,20.80
2019-05-21T17:06:19.650Z,20.80
2019-05-21T17:11:23.678Z,20.70
2019-05-21T17:16:27.711Z,20.70
2019-05-21T17:21:31.946Z,20.70
2019-05-21T17:26:35.905Z,20.60
2019-05-21T17:31:39.841Z,20.50
2019-05-21T17:36:43.785Z,20.50
2019-05-21T17:41:47.711Z,20.50
2019-05-21T17:46:51.693Z,20.40
2019-05-21T17:51:55.776Z,20.40
2019-05-21T17:56:59.744Z,20.40
2019-05-21T18:02:05.353Z,20.30
2019-05-21T18:07:10.679Z,20.30
2019-05-21T18:12:29.747Z,20.20
2019-05-21T18:17:23.434Z,20.20
2019-05-21T18:22:29.510Z,20.20
2019-05-21T18:27:33.409Z,20.10
2019-05-21T18:32:37.655Z,20.10
2019-05-21T18:37:41.541Z,20.00
2019-05-21T18:42:45.559Z,19.90
2019-05-21T18:47:49.581Z,19.80
2019-05-21T18:52:53.497Z,19.70
2019-05-21T18:57:59.008Z,19.60
2019-05-21T19:03:03.196Z,19.60
2019-05-21T19:08:07.133Z,19.60
2019-05-21T19:13:11.053Z,19.60
2019-05-21T19:18:15.632Z,19.60
2019-05-21T19:23:23.106Z,19.60
2019-05-21T19:28:27.761Z,19.60
2019-05-21T19:33:32.449Z,19.60
2019-05-21T19:38:37.269Z,19.60
2019-05-21T19:43:41.970Z,19.60
2019-05-21T19:48:46.462Z,19.60
2019-05-21T19:53:50.436Z,19.60
2019-05-21T19:58:54.404Z,19.70
2019-05-21T20:04:00.363Z,19.60
2019-05-21T20:09:08.198Z,19.60
2019-05-21T20:14:13.039Z,19.50
2019-05-21T20:19:21.022Z,19.40
2019-05-21T20:24:25.332Z,19.40
2019-05-21T20:29:29.330Z,19.30
2019-05-21T20:34:33.942Z,19.30
2019-05-21T20:39:39.040Z,19.30
2019-05-21T20:44:43.077Z,19.30
2019-05-21T20:49:49.063Z,19.30
2019-05-21T20:54:54.869Z,19.20
2019-05-21T20:59:58.867Z,19.10
2019-05-21T21:05:03.238Z,19.10
2019-05-21T21:10:09.043Z,19.10
2019-05-21T21:15:14.230Z,19.00
2019-05-21T21:20:18.676Z,19.00
2019-05-21T21:25:24.364Z,19.00
2019-05-21T21:30:29.340Z,18.90
2019-05-21T21:35:34.841Z,18.90
2019-05-21T21:40:39.121Z,18.90
2019-05-21T21:45:42.994Z,18.80
2019-05-21T21:50:47.872Z,18.80
2019-05-21T21:55:51.773Z,18.80
2019-05-21T22:01:09.129Z,18.80
2019-05-21T22:06:15.545Z,18.80
2019-05-21T22:11:20.199Z,18.70
2019-05-21T22:16:25.235Z,18.70
2019-05-21T22:21:30.118Z,18.60
2019-05-21T22:26:34.235Z,18.60
2019-05-21T22:31:38.312Z,18.50
2019-05-21T22:36:42.394Z,18.50
2019-05-21T22:41:46.310Z,18.50
2019-05-21T22:46:50.430Z,18.40
2019-05-21T22:51:54.450Z,18.40
2019-05-21T22:56:58.383Z,18.40
2019-05-21T23:02:03.996Z,18.40
2019-05-21T23:07:08.181Z,18.40
2019-05-21T23:12:12.319Z,18.30
2019-05-21T23:17:16.693Z,18.40
2019-05-21T23:22:22.517Z,18.40
2019-05-21T23:27:26.496Z,18.40
2019-05-21T23:32:30.473Z,18.40
2019-05-21T23:37:35.590Z,18.40
2019-05-21T23:42:41.237Z,18.40
2019-05-21T23:47:45.228Z,18.50
2019-05-21T23:52:49.452Z,18.50
2019-05-21T23:57:53.676Z,18.50
